Time;durP1;ratioP1;P1;durP2;ratioP2;P2;SDS_P1;SDS_P2;PMS_P1;PMS_P2;Temp;Humidity;BMP_temperature;BMP_pressure;BME280_temperature;BME280_humidity;BME280_pressure;Samples;Min_cycle;Max_cycle;Signal;HPM_P1;HPM_P2
2022/12/13 05:31:10;;;;;;;16.27;10.07;;;0.90;72.30;;;;;;5588423;23;20058;-81
2022/12/13 05:33:38;;;;;;;18.40;9.88;;;0.80;72.30;;;;;;4969563;28;20035;-81
2022/12/13 05:36:05;;;;;;;17.65;9.55;;;0.80;72.40;;;;;;4980113;28;20461;-81
2022/12/13 05:38:31;;;;;;;15.82;9.80;;;0.80;72.40;;;;;;4973360;28;20031;-81
2022/12/13 05:40:57;;;;;;;17.30;9.85;;;0.70;72.40;;;;;;4961277;29;20028;-81
2022/12/13 05:43:23;;;;;;;16.45;9.77;;;0.80;72.50;;;;;;4962658;28;20082;-81
2022/12/13 05:45:49;;;;;;;15.68;9.20;;;0.80;72.60;;;;;;4979649;28;20027;-81
2022/12/13 05:48:15;;;;;;;15.45;8.32;;;0.70;72.60;;;;;;4959661;29;20031;-81
2022/12/13 05:50:43;;;;;;;20.33;9.93;;;0.70;72.70;;;;;;4960197;28;20027;-81
2022/12/13 05:53:09;;;;;;;14.02;8.23;;;0.70;72.60;;;;;;4960309;28;20023;-79
2022/12/13 05:55:37;;;;;;;14.07;8.75;;;0.80;72.60;;;;;;4959678;29;20042;-79
2022/12/13 05:58:02;;;;;;;21.83;10.57;;;0.70;72.70;;;;;;4958339;28;20045;-79
2022/12/13 06:00:28;;;;;;;18.95;11.05;;;0.70;72.60;;;;;;4959092;29;20023;-77
2022/12/13 06:02:54;;;;;;;17.50;10.05;;;0.70;72.70;;;;;;4974264;28;20038;-78
2022/12/13 06:05:20;;;;;;;18.83;10.38;;;0.60;72.80;;;;;;4979251;28;20031;-78
2022/12/13 06:07:48;;;;;;;20.52;8.80;;;0.60;73.00;;;;;;4957516;29;20522;-79
2022/12/13 06:10:13;;;;;;;15.60;9.13;;;0.50;72.90;;;;;;4958431;29;20019;-79
2022/12/13 06:12:39;;;;;;;19.48;9.52;;;0.50;73.00;;;;;;4978355;28;20541;-80
2022/12/13 06:15:05;;;;;;;17.30;9.05;;;0.40;73.10;;;;;;4980406;28;20035;-79
2022/12/13 06:17:35;;;;;;;16.20;9.80;;;0.40;73.20;;;;;;4967833;28;20035;-83
2022/12/13 06:20:03;;;;;;;20.08;11.15;;;0.30;73.20;;;;;;4961777;28;20547;-81
2022/12/13 06:22:28;;;;;;;10.55;7.68;;;0.30;73.40;;;;;;4977953;28;20030;-80
2022/12/13 06:24:54;;;;;;;15.15;9.35;;;0.30;73.40;;;;;;4972249;28;20034;-80
2022/12/13 06:27:20;;;;;;;21.15;9.50;;;0.30;73.50;;;;;;4959761;29;20161;-88
2022/12/13 06:29:46;;;;;;;15.45;11.10;;;0.30;73.50;;;;;;4942600;28;20027;-89
2022/12/13 06:32:11;;;;;;;18.55;13.00;;;0.30;73.20;;;;;;4979944;28;20481;-86
2022/12/13 06:34:37;;;;;;;20.63;12.63;;;0.20;73.40;;;;;;4960417;28;20023;-80
2022/12/13 06:37:05;;;;;;;12.95;6.90;;;0.30;73.40;;;;;;4976030;28;20146;-87
2022/12/13 06:39:32;;;;;;;16.40;10.77;;;0.30;73.20;;;;;;4959792;28;20456;-87
2022/12/13 06:42:04;;;;;;;14.77;9.45;;;0.30;73.00;;;;;;4959835;28;20031;-86
2022/12/13 06:44:30;;;;;;;20.85;11.20;;;0.40;72.90;;;;;;4973431;28;20019;-87
2022/12/13 06:46:57;;;;;;;28.77;14.80;;;0.40;72.60;;;;;;4967507;28;20506;-86
2022/12/13 06:49:22;;;;;;;15.32;9.15;;;0.30;72.50;;;;;;4974252;28;20026;-85
2022/12/13 06:51:48;;;;;;;18.58;10.93;;;0.30;72.60;;;;;;4958664;28;20037;-86
2022/12/13 06:54:13;;;;;;;18.05;11.15;;;0.30;72.60;;;;;;4963505;28;20402;-85
2022/12/13 06:56:39;;;;;;;12.85;9.38;;;0.30;72.60;;;;;;4975350;28;20049;-86
2022/12/13 06:59:05;;;;;;;20.55;11.43;;;0.30;72.60;;;;;;4977515;28;20102;-78
2022/12/13 07:01:30;;;;;;;25.08;13.82;;;0.20;72.60;;;;;;4972050;28;20117;-78
2022/12/13 07:03:56;;;;;;;21.63;13.45;;;0.20;72.70;;;;;;4973196;28;20030;-78
2022/12/13 07:06:23;;;;;;;18.27;9.65;;;0.30;72.70;;;;;;4977002;28;20027;-78
2022/12/13 07:08:55;;;;;;;18.23;10.85;;;0.30;72.60;;;;;;4974692;28;20030;-79
2022/12/13 07:11:24;;;;;;;33.58;18.33;;;0.30;72.60;;;;;;4976708;28;20069;-77
2022/12/13 07:13:51;;;;;;;31.15;17.13;;;0.40;72.70;;;;;;4974575;28;20042;-78
2022/12/13 07:16:17;;;;;;;25.08;13.38;;;0.40;72.50;;;;;;4976967;28;20023;-80
2022/12/13 07:18:43;;;;;;;20.17;12.20;;;0.50;72.50;;;;;;4978421;28;20034;-80
2022/12/13 07:21:12;;;;;;;20.13;11.75;;;0.50;72.60;;;;;;4969219;28;20018;-80
2022/12/13 07:23:39;;;;;;;16.15;10.80;;;0.40;72.80;;;;;;4987003;28;20026;-80
2022/12/13 07:26:05;;;;;;;24.25;12.02;;;0.50;72.60;;;;;;4984832;28;20170;-80
2022/12/13 07:28:32;;;;;;;20.98;9.27;;;0.40;72.60;;;;;;4976688;28;20109;-80
2022/12/13 07:31:03;;;;;;;18.33;10.02;;;0.30;72.20;;;;;;4980003;28;20055;-79
2022/12/13 07:33:32;;;;;;;15.98;8.52;;;0.40;72.70;;;;;;4962151;28;20042;-80
2022/12/13 07:36:02;;;;;;;15.15;10.13;;;0.40;72.70;;;;;;4968689;28;20428;-81
2022/12/13 07:38:27;;;;;;;19.30;10.98;;;0.40;72.60;;;;;;4960211;28;20057;-80
2022/12/13 07:40:56;;;;;;;16.77;10.23;;;0.50;72.50;;;;;;4957578;28;20043;-80
2022/12/13 07:43:23;;;;;;;26.77;11.23;;;0.50;72.50;;;;;;4959521;28;20030;-80
2022/12/13 07:45:48;;;;;;;15.57;10.00;;;0.50;72.40;;;;;;4979969;28;20110;-80
2022/12/13 07:48:14;;;;;;;15.95;10.38;;;0.40;72.40;;;;;;4984732;28;20062;-79
2022/12/13 07:50:40;;;;;;;17.35;10.85;;;0.40;72.50;;;;;;4990383;28;20033;-79
2022/12/13 07:53:07;;;;;;;14.02;8.38;;;0.30;72.40;;;;;;4968190;28;20027;-79
2022/12/13 07:55:33;;;;;;;17.88;9.48;;;0.20;72.30;;;;;;4985280;28;20037;-79
2022/12/13 07:58:11;;;;;;;23.67;12.45;;;0.30;72.60;;;;;;4968734;28;20151;-79
2022/12/13 08:00:38;;;;;;;18.05;10.43;;;0.30;72.60;;;;;;4967151;28;20049;-79
2022/12/13 08:03:04;;;;;;;21.10;11.02;;;0.40;72.50;;;;;;4986123;28;20030;-81
2022/12/13 08:05:31;;;;;;;25.63;10.85;;;0.20;72.30;;;;;;4959954;28;20027;-80
2022/12/13 08:07:58;;;;;;;20.50;10.68;;;0.30;72.50;;;;;;4940414;29;20026;-80
2022/12/13 08:10:23;;;;;;;18.77;10.73;;;0.20;72.10;;;;;;4962355;28;20085;-80
2022/12/13 08:12:49;;;;;;;26.33;12.60;;;0.20;72.60;;;;;;4976559;28;20015;-80
2022/12/13 08:15:16;;;;;;;24.20;11.52;;;0.30;72.80;;;;;;4959781;28;20042;-85
2022/12/13 08:17:42;;;;;;;23.63;12.35;;;0.40;72.60;;;;;;4941611;28;20031;-81
2022/12/13 08:20:08;;;;;;;21.63;11.75;;;0.50;72.50;;;;;;4957214;28;20744;-80
2022/12/13 08:22:34;;;;;;;31.88;13.50;;;0.40;72.00;;;;;;4940991;28;20019;-81
2022/12/13 08:25:00;;;;;;;25.05;11.35;;;0.40;72.40;;;;;;4975516;28;20034;-81
2022/12/13 08:27:26;;;;;;;26.00;16.08;;;0.50;72.50;;;;;;4977016;28;20030;-81
2022/12/13 08:29:52;;;;;;;22.33;12.60;;;0.50;72.10;;;;;;4958294;28;20487;-80
2022/12/13 08:32:18;;;;;;;19.35;9.57;;;0.40;71.90;;;;;;4957452;28;20114;-81
2022/12/13 08:34:44;;;;;;;16.10;10.07;;;0.40;72.00;;;;;;4957489;29;20054;-81
2022/12/13 08:37:10;;;;;;;21.20;9.93;;;0.50;72.50;;;;;;4940322;28;20039;-81
2022/12/13 08:39:37;;;;;;;16.10;10.00;;;0.60;72.30;;;;;;4959671;28;20039;-81
2022/12/13 08:42:05;;;;;;;17.75;10.63;;;0.70;72.00;;;;;;4957373;29;20023;-81
2022/12/13 08:44:31;;;;;;;16.65;9.20;;;0.80;71.90;;;;;;4957440;29;20023;-81
2022/12/13 08:46:57;;;;;;;17.85;11.77;;;0.80;70.90;;;;;;4968863;28;20606;-81
2022/12/13 08:49:22;;;;;;;16.38;8.30;;;0.80;71.40;;;;;;4959498;28;20648;-81
2022/12/13 08:51:48;;;;;;;17.90;11.10;;;0.90;71.00;;;;;;4976697;28;20478;-81
2022/12/13 08:54:14;;;;;;;12.35;8.50;;;0.90;71.00;;;;;;4958548;28;20506;-81
2022/12/13 08:56:39;;;;;;;21.52;9.65;;;1.00;71.00;;;;;;4974630;28;20022;-81
2022/12/13 08:59:05;;;;;;;27.25;12.02;;;1.00;70.90;;;;;;4959303;28;20043;-82
2022/12/13 09:01:30;;;;;;;20.65;11.63;;;1.00;70.90;;;;;;4957687;29;20023;-81
2022/12/13 09:03:56;;;;;;;25.30;10.30;;;1.00;70.60;;;;;;4957247;29;20023;-80
2022/12/13 09:06:22;;;;;;;18.33;12.05;;;1.00;70.90;;;;;;4963078;28;20026;-81
2022/12/13 09:08:47;;;;;;;27.13;12.00;;;1.00;70.50;;;;;;4959620;28;20090;-81
2022/12/13 09:11:13;;;;;;;27.88;15.15;;;1.00;70.40;;;;;;4966079;28;20082;-81
2022/12/13 09:13:39;;;;;;;13.45;7.75;;;0.90;70.00;;;;;;4976512;28;20111;-81
2022/12/13 09:16:13;;;;;;;22.67;13.02;;;0.90;70.10;;;;;;4957737;28;20126;-81
2022/12/13 09:18:39;;;;;;;16.90;11.35;;;0.90;70.30;;;;;;4939992;29;20031;-81
2022/12/13 09:21:10;;;;;;;24.98;10.80;;;1.00;70.50;;;;;;4957166;29;20028;-81
2022/12/13 09:23:36;;;;;;;17.10;10.57;;;1.10;70.80;;;;;;4961340;28;20133;-81
2022/12/13 09:26:02;;;;;;;19.15;10.38;;;1.10;70.30;;;;;;4955661;28;20128;-81
2022/12/13 09:28:29;;;;;;;20.20;9.48;;;1.20;70.50;;;;;;4980023;28;20034;-81
2022/12/13 09:30:57;;;;;;;16.70;9.02;;;1.20;69.90;;;;;;4968267;28;20051;-81
2022/12/13 09:33:23;;;;;;;19.95;9.95;;;1.20;70.30;;;;;;4959842;29;20178;-81
2022/12/13 09:35:50;;;;;;;16.17;8.85;;;1.20;69.70;;;;;;4950136;29;20031;-81
2022/12/13 09:38:16;;;;;;;15.40;9.93;;;1.40;69.90;;;;;;4961826;28;20042;-81
2022/12/13 09:40:46;;;;;;;10.35;7.97;;;1.40;68.80;;;;;;4979517;28;20027;-81
2022/12/13 09:43:21;;;;;;;21.75;8.23;;;1.50;68.80;;;;;;4974162;28;20023;-82
2022/12/13 09:45:49;;;;;;;21.17;10.90;;;1.50;67.60;;;;;;4943254;29;20027;-81
2022/12/13 09:48:19;;;;;;;9.88;7.38;;;1.70;68.70;;;;;;4960539;29;20024;-81
2022/12/13 09:50:46;;;;;;;14.98;9.93;;;1.70;67.50;;;;;;4958017;29;20035;-81
2022/12/13 09:53:15;;;;;;;19.15;11.00;;;1.80;67.90;;;;;;4959031;29;20035;-81
2022/12/13 09:55:43;;;;;;;21.48;11.50;;;2.00;68.40;;;;;;4943039;29;20031;-81
2022/12/13 09:58:33;;;;;;;19.75;10.93;;;2.00;68.00;;;;;;4942519;29;20158;-81
2022/12/13 10:00:59;;;;;;;25.60;10.07;;;2.00;66.80;;;;;;4960136;29;20516;-81
2022/12/13 10:03:25;;;;;;;19.70;9.55;;;1.70;67.50;;;;;;4960120;29;20039;-81
2022/12/13 10:06:12;;;;;;;16.25;9.85;;;2.00;67.50;;;;;;4942749;29;20136;-81
2022/12/13 10:08:43;;;;;;;7.22;5.07;;;2.20;67.30;;;;;;4971372;28;20085;-81
2022/12/13 10:11:13;;;;;;;22.08;9.30;;;2.20;66.30;;;;;;4961413;28;20098;-81
2022/12/13 10:13:43;;;;;;;17.38;10.73;;;2.20;66.10;;;;;;4961401;28;20220;-81
2022/12/13 10:16:14;;;;;;;12.32;7.20;;;2.00;65.80;;;;;;4959750;28;20087;-81
2022/12/13 10:18:43;;;;;;;17.77;8.50;;;1.90;66.50;;;;;;4959713;29;20032;-81
2022/12/13 10:21:26;;;;;;;13.75;6.32;;;2.10;67.60;;;;;;4959705;29;20030;-81
2022/12/13 10:23:52;;;;;;;8.45;6.63;;;2.10;67.10;;;;;;4960450;28;20022;-81
2022/12/13 10:26:17;;;;;;;17.67;9.65;;;2.00;66.20;;;;;;4978616;28;20018;-80
2022/12/13 10:28:43;;;;;;;16.10;9.23;;;2.10;66.90;;;;;;4978899;28;20033;-81
2022/12/13 10:31:19;;;;;;;4.07;3.67;;;2.00;66.60;;;;;;4957081;28;20047;-81
2022/12/13 10:33:54;;;;;;;21.02;9.60;;;1.70;66.00;;;;;;4959548;29;20110;-81
2022/12/13 10:36:50;;;;;;;9.68;7.63;;;1.90;67.10;;;;;;4946354;28;20130;-80
2022/12/13 10:39:34;;;;;;;15.70;9.32;;;1.70;66.30;;;;;;4942685;28;20526;-81
2022/12/13 10:42:08;;;;;;;13.23;7.88;;;1.70;66.20;;;;;;4957898;29;20035;-81
2022/12/13 10:44:34;;;;;;;18.88;11.38;;;1.70;66.80;;;;;;4959321;29;20050;-81
2022/12/13 10:47:17;;;;;;;11.00;7.20;;;1.70;66.60;;;;;;4959117;28;20030;-80
2022/12/13 10:49:52;;;;;;;14.88;8.35;;;1.90;66.80;;;;;;4959491;29;20055;-80
2022/12/13 10:52:33;;;;;;;20.90;10.75;;;1.90;67.30;;;;;;4960156;28;20031;-81
2022/12/13 10:55:06;;;;;;;16.65;8.82;;;2.20;67.10;;;;;;4956414;29;20077;-81
2022/12/13 10:57:32;;;;;;;8.25;6.45;;;2.10;65.40;;;;;;4957637;29;20023;-80
2022/12/13 10:59:58;;;;;;;17.13;8.25;;;2.00;65.80;;;;;;4958727;28;20044;-81
2022/12/13 11:02:30;;;;;;;10.65;6.30;;;2.00;66.30;;;;;;4958919;29;20022;-81
2022/12/13 11:04:57;;;;;;;16.30;8.70;;;2.00;66.10;;;;;;4961363;28;20019;-81
2022/12/13 11:07:24;;;;;;;8.57;6.35;;;2.20;65.70;;;;;;4949569;28;20022;-80
2022/12/13 11:09:50;;;;;;;12.40;7.70;;;2.30;66.10;;;;;;4958890;28;20778;-81
2022/12/13 11:12:21;;;;;;;19.63;9.05;;;2.30;65.10;;;;;;4976375;28;20089;-81
2022/12/13 11:14:49;;;;;;;17.83;8.45;;;2.40;65.90;;;;;;4960870;28;20031;-81
2022/12/13 11:17:20;;;;;;;13.70;8.38;;;2.40;65.60;;;;;;4958320;28;20046;-81
2022/12/13 11:19:48;;;;;;;13.48;7.97;;;2.50;64.90;;;;;;4963944;28;20059;-80
2022/12/13 11:22:30;;;;;;;15.13;8.77;;;2.70;65.20;;;;;;4941275;29;20027;-81
2022/12/13 11:25:01;;;;;;;15.75;8.35;;;2.70;64.90;;;;;;4941183;29;20031;-81
2022/12/13 11:27:47;;;;;;;12.52;7.72;;;2.70;64.50;;;;;;4940971;29;20024;-81
2022/12/13 11:30:24;;;;;;;18.02;9.23;;;2.80;65.10;;;;;;4958131;28;20387;-81
2022/12/13 11:33:02;;;;;;;13.55;8.60;;;2.90;64.70;;;;;;4958385;29;20031;-80
2022/12/13 11:35:59;;;;;;;16.85;9.32;;;2.90;64.30;;;;;;4958611;29;20032;-81
2022/12/13 11:38:49;;;;;;;13.25;8.90;;;3.10;64.60;;;;;;4967888;28;20027;-80
2022/12/13 11:41:21;;;;;;;;;;;3.20;64.20;;;;;;4958364;29;20039;-80
2022/12/13 11:43:56;;;;;;;16.17;8.15;;;3.10;64.20;;;;;;4958085;28;19917;-80
2022/12/13 11:46:36;;;;;;;12.95;7.07;;;3.20;65.00;;;;;;4946388;28;20109;-80
2022/12/13 11:49:10;;;;;;;15.60;9.30;;;3.10;64.60;;;;;;4961707;28;20035;-80
2022/12/13 11:51:49;;;;;;;14.68;7.85;;;3.10;64.70;;;;;;4957064;29;20275;-80
2022/12/13 11:54:22;;;;;;;16.70;8.82;;;3.20;64.90;;;;;;4958028;28;20494;-80
2022/12/13 11:56:49;;;;;;;17.33;8.77;;;3.50;65.20;;;;;;4940704;29;20570;-80
2022/12/13 11:59:22;;;;;;;13.23;7.85;;;3.40;64.10;;;;;;4956833;29;20037;-80
2022/12/13 12:02:06;;;;;;;21.77;9.68;;;3.50;64.20;;;;;;4957686;28;20066;-80
2022/12/13 12:04:37;;;;;;;15.75;9.02;;;3.60;64.70;;;;;;4945786;29;20074;-80
2022/12/13 12:07:10;;;;;;;13.98;9.60;;;3.60;63.90;;;;;;4940837;29;20035;-80
2022/12/13 12:09:41;;;;;;;14.45;8.23;;;3.60;64.60;;;;;;4959431;28;20034;-81
2022/12/13 12:12:20;;;;;;;20.67;10.30;;;3.60;64.40;;;;;;4969673;28;20455;-80
2022/12/13 12:15:16;;;;;;;13.77;8.57;;;3.60;64.70;;;;;;4940426;29;20058;-80
2022/12/13 12:17:42;;;;;;;20.05;11.18;;;3.50;64.60;;;;;;4955538;29;20069;-80
2022/12/13 12:20:20;;;;;;;15.52;8.73;;;3.60;65.10;;;;;;4940285;29;20019;-80
2022/12/13 12:23:13;;;;;;;18.50;8.88;;;3.70;65.10;;;;;;4960543;28;20121;-80
2022/12/13 12:26:13;;;;;;;16.05;9.38;;;3.60;65.10;;;;;;4943579;28;20023;-80
2022/12/13 12:29:25;;;;;;;14.23;8.00;;;3.60;65.20;;;;;;4957515;29;20039;-80
2022/12/13 12:32:06;;;;;;;10.65;7.45;;;3.70;65.60;;;;;;4904675;29;20519;-80
2022/12/13 12:34:44;;;;;;;12.32;7.90;;;3.70;65.50;;;;;;4949761;28;20037;-80
2022/12/13 12:37:32;;;;;;;11.90;8.13;;;3.70;65.40;;;;;;4976700;28;20031;-80
2022/12/13 12:40:31;;;;;;;12.77;7.70;;;3.80;65.70;;;;;;4940213;29;20090;-80
2022/12/13 12:43:03;;;;;;;21.17;10.50;;;3.80;65.50;;;;;;4957266;29;20031;-80
2022/12/13 12:45:28;;;;;;;21.38;10.43;;;3.90;65.40;;;;;;4957238;28;20170;-80
2022/12/13 12:47:54;;;;;;;17.33;9.20;;;3.80;65.20;;;;;;4957764;29;20055;-80
2022/12/13 12:50:34;;;;;;;23.02;11.43;;;3.80;65.20;;;;;;4955886;29;20038;-81
2022/12/13 12:53:05;;;;;;;17.02;8.60;;;3.90;65.90;;;;;;4962556;28;20510;-80
2022/12/13 12:55:34;;;;;;;20.75;8.88;;;3.90;65.90;;;;;;4957364;29;20035;-81
2022/12/13 12:58:35;;;;;;;18.90;10.25;;;3.90;65.60;;;;;;4957535;28;20035;-80
2022/12/13 13:01:01;;;;;;;20.70;10.52;;;4.00;65.80;;;;;;4956641;28;20031;-80
2022/12/13 13:03:29;;;;;;;22.13;10.63;;;4.00;65.60;;;;;;4961106;28;20029;-80
2022/12/13 13:06:11;;;;;;;16.88;8.02;;;4.10;66.00;;;;;;4961154;29;20031;-81
2022/12/13 13:08:48;;;;;;;12.88;8.02;;;4.20;66.20;;;;;;4958943;28;20389;-81
2022/12/13 13:11:14;;;;;;;14.07;7.55;;;4.20;65.90;;;;;;4967975;28;20030;-81
2022/12/13 13:13:59;;;;;;;13.07;6.93;;;4.20;65.40;;;;;;4978082;28;20114;-81
2022/12/13 13:16:39;;;;;;;13.95;8.18;;;4.20;66.00;;;;;;4977421;28;20088;-81
2022/12/13 13:19:31;;;;;;;13.10;8.25;;;4.10;66.10;;;;;;4976942;28;20058;-81
2022/12/13 13:21:58;;;;;;;12.85;7.25;;;4.10;66.00;;;;;;4967241;28;20033;-81
2022/12/13 13:24:28;;;;;;;15.07;8.02;;;4.20;65.80;;;;;;4960481;28;20031;-81
2022/12/13 13:26:58;;;;;;;15.15;8.00;;;4.20;65.90;;;;;;4979009;28;20034;-81
2022/12/13 13:29:25;;;;;;;17.75;7.60;;;4.10;65.80;;;;;;4977361;28;20023;-81
2022/12/13 13:32:11;;;;;;;19.48;8.52;;;4.20;66.00;;;;;;4960457;28;20057;-81
2022/12/13 13:34:40;;;;;;;16.67;9.07;;;4.20;66.60;;;;;;4976597;28;20456;-81
2022/12/13 13:37:21;;;;;;;29.88;9.27;;;4.30;66.20;;;;;;4961553;28;20031;-81
2022/12/13 13:40:00;;;;;;;15.05;6.78;;;4.20;65.90;;;;;;4976297;28;20023;-81
2022/12/13 13:42:30;;;;;;;20.88;10.50;;;4.20;66.00;;;;;;4976876;28;20477;-81
2022/12/13 13:45:19;;;;;;;17.83;9.18;;;4.30;66.70;;;;;;4958989;28;20405;-80
2022/12/13 13:47:56;;;;;;;15.02;9.85;;;4.20;66.40;;;;;;4959351;28;20026;-81
2022/12/13 13:50:35;;;;;;;17.95;9.77;;;4.20;66.30;;;;;;4959674;28;20027;-81
2022/12/13 13:53:27;;;;;;;11.30;6.40;;;4.20;66.40;;;;;;4957011;28;20495;-84
2022/12/13 13:56:19;;;;;;;15.55;8.07;;;4.20;66.20;;;;;;4971986;28;20035;-81
2022/12/13 13:59:10;;;;;;;29.05;10.70;;;4.10;66.80;;;;;;4978992;28;20396;-81
2022/12/13 14:02:09;;;;;;;14.90;9.25;;;4.10;66.70;;;;;;4973871;28;20032;-80
2022/12/13 14:05:08;;;;;;;13.93;9.15;;;4.10;66.90;;;;;;4959712;28;20035;-81
2022/12/13 14:07:46;;;;;;;18.33;8.10;;;4.10;67.00;;;;;;4953833;28;20027;-81
2022/12/13 14:10:36;;;;;;;20.65;10.80;;;4.20;67.10;;;;;;4972306;28;20039;-81
2022/12/13 14:13:35;;;;;;;16.95;8.73;;;4.20;67.20;;;;;;4959846;29;20418;-81
2022/12/13 14:16:35;;;;;;;14.13;8.18;;;4.30;67.20;;;;;;4957600;28;20117;-80
2022/12/13 14:19:12;;;;;;;19.00;8.82;;;4.30;66.80;;;;;;4978956;28;20058;-81
2022/12/13 14:22:15;;;;;;;18.05;9.85;;;4.20;66.90;;;;;;4969709;28;20395;-80
2022/12/13 14:24:51;;;;;;;15.55;8.02;;;4.20;67.20;;;;;;4972224;28;20019;-80
2022/12/13 14:27:38;;;;;;;20.25;10.88;;;4.10;67.70;;;;;;4959456;29;20027;-81
2022/12/13 14:30:05;;;;;;;19.45;10.43;;;4.10;67.90;;;;;;4959389;29;20019;-81
2022/12/13 14:32:36;;;;;;;20.50;11.30;;;4.00;68.00;;;;;;4959164;28;20052;-80
2022/12/13 14:35:02;;;;;;;15.25;10.07;;;4.00;68.20;;;;;;4959112;28;20561;-80
2022/12/13 14:37:37;;;;;;;15.68;8.93;;;4.00;68.30;;;;;;4942277;29;20077;-81
2022/12/13 14:40:28;;;;;;;17.65;10.40;;;4.10;68.60;;;;;;4958820;28;20031;-80
2022/12/13 14:42:53;;;;;;;;;;;4.10;68.60;;;;;;4962441;28;20049;-80
2022/12/13 14:45:29;;;;;;;21.45;9.93;;;4.20;68.50;;;;;;4959329;29;19954;-80
2022/12/13 14:48:48;;;;;;;16.42;8.48;;;4.20;68.40;;;;;;4958954;29;20031;-80
2022/12/13 14:51:33;;;;;;;17.63;9.88;;;4.30;68.10;;;;;;4919751;29;20049;-80
2022/12/13 14:54:02;;;;;;;9.93;6.35;;;4.40;68.20;;;;;;4958848;29;20106;-80
2022/12/13 14:56:28;;;;;;;18.75;9.82;;;4.40;68.10;;;;;;4963882;28;20019;-81
2022/12/13 14:58:56;;;;;;;23.08;10.68;;;4.40;67.90;;;;;;4960559;28;20611;-80
2022/12/13 15:01:25;;;;;;;12.27;7.97;;;4.40;67.80;;;;;;4978067;28;20098;-80
2022/12/13 15:03:51;;;;;;;19.90;9.90;;;4.30;68.00;;;;;;4960971;28;20031;-81
2022/12/13 15:06:19;;;;;;;18.20;9.23;;;4.30;68.20;;;;;;4956744;29;20086;-80
2022/12/13 15:08:45;;;;;;;15.52;8.90;;;4.40;68.10;;;;;;4947957;28;20177;-80
2022/12/13 15:11:12;;;;;;;14.98;8.75;;;4.30;68.20;;;;;;4972050;28;20031;-78
2022/12/13 15:13:45;;;;;;;17.23;11.15;;;4.30;68.10;;;;;;4959824;28;20693;-80
2022/12/13 15:16:26;;;;;;;14.77;9.30;;;4.30;68.00;;;;;;4977965;28;20026;-81
2022/12/13 15:19:15;;;;;;;26.73;10.15;;;4.20;68.30;;;;;;4968982;28;20108;-79
2022/12/13 15:21:40;;;;;;;14.73;7.22;;;4.20;68.20;;;;;;4941171;29;20019;-79
2022/12/13 15:24:08;;;;;;;19.27;9.45;;;4.20;68.40;;;;;;4972088;28;20097;-79
2022/12/13 15:26:34;;;;;;;20.77;9.35;;;4.10;68.30;;;;;;4967267;28;20054;-79
2022/12/13 15:29:04;;;;;;;16.30;9.45;;;4.20;68.70;;;;;;4958212;29;20439;-79
2022/12/13 15:31:33;;;;;;;26.42;11.23;;;4.10;68.60;;;;;;4958065;28;20075;-79
2022/12/13 15:34:21;;;;;;;18.73;11.60;;;4.10;69.10;;;;;;4958193;29;20042;-79
2022/12/13 15:36:47;;;;;;;23.13;10.55;;;4.00;68.90;;;;;;4941249;29;20548;-79
2022/12/13 15:39:13;;;;;;;17.92;9.25;;;4.00;69.10;;;;;;4957810;28;20039;-79
2022/12/13 15:41:46;;;;;;;17.83;10.18;;;4.00;69.30;;;;;;4957920;29;20479;-79
2022/12/13 15:44:39;;;;;;;18.45;9.65;;;4.10;69.40;;;;;;4957929;29;20082;-78
2022/12/13 15:47:11;;;;;;;16.42;9.77;;;4.00;69.40;;;;;;4957796;28;20037;-79
2022/12/13 15:49:54;;;;;;;18.70;9.60;;;4.10;69.10;;;;;;4957818;29;20031;-79
2022/12/13 15:52:19;;;;;;;24.02;11.07;;;4.00;69.30;;;;;;4957806;29;20087;-79
2022/12/13 15:55:06;;;;;;;20.80;12.52;;;3.90;69.60;;;;;;4963664;28;20039;-78
2022/12/13 15:57:52;;;;;;;22.08;11.10;;;3.80;69.70;;;;;;4957658;28;20032;-78
2022/12/13 16:00:22;;;;;;;15.38;8.85;;;3.80;69.70;;;;;;4957553;29;20042;-79
2022/12/13 16:03:00;;;;;;;18.02;10.18;;;3.70;69.80;;;;;;4957549;29;20020;-79
2022/12/13 16:05:33;;;;;;;15.82;9.57;;;3.70;70.00;;;;;;4957565;28;20055;-79
2022/12/13 16:08:02;;;;;;;19.67;10.57;;;3.60;70.10;;;;;;4957696;29;20015;-79
2022/12/13 16:10:28;;;;;;;23.08;10.45;;;3.60;70.30;;;;;;4964594;28;20027;-79
2022/12/13 16:13:05;;;;;;;20.02;9.82;;;3.50;70.40;;;;;;4956965;28;20034;-78
2022/12/13 16:15:46;;;;;;;19.23;11.80;;;3.40;70.70;;;;;;4970021;28;20403;-79
2022/12/13 16:18:22;;;;;;;13.88;9.73;;;3.40;70.90;;;;;;4953084;28;20030;-79
2022/12/13 16:20:49;;;;;;;17.60;9.85;;;3.30;70.70;;;;;;4972598;28;20051;-80
2022/12/13 16:23:15;;;;;;;12.57;6.80;;;3.30;70.90;;;;;;4977392;28;20483;-75
2022/12/13 16:25:41;;;;;;;20.25;10.55;;;3.30;70.80;;;;;;4975901;28;20062;-76
2022/12/13 16:28:10;;;;;;;23.55;11.82;;;3.30;70.90;;;;;;4976016;28;20475;-77
2022/12/13 16:31:06;;;;;;;16.55;9.35;;;3.30;70.80;;;;;;4966601;28;20058;-76
2022/12/13 16:33:31;;;;;;;24.70;13.60;;;3.20;70.80;;;;;;4959097;28;20094;-76
2022/12/13 16:35:57;;;;;;;14.63;8.38;;;3.30;70.80;;;;;;4975628;28;20592;-76
2022/12/13 16:38:24;;;;;;;20.80;10.10;;;3.20;70.90;;;;;;4967944;28;20019;-76
2022/12/13 16:40:53;;;;;;;13.82;7.93;;;3.20;71.10;;;;;;4952920;28;20037;-76
2022/12/13 16:43:22;;;;;;;17.90;10.02;;;3.20;71.20;;;;;;4955232;28;20027;-76
2022/12/13 16:45:52;;;;;;;18.27;9.27;;;3.20;71.20;;;;;;4960889;28;20027;-77
2022/12/13 16:48:18;;;;;;;;;;;3.20;70.90;;;;;;4974759;28;20050;-76
2022/12/13 16:50:46;;;;;;;11.77;7.60;;;3.20;71.10;;;;;;4973208;28;19918;-77
2022/12/13 16:53:13;;;;;;;16.20;8.13;;;3.20;70.90;;;;;;4975246;28;20508;-77
2022/12/13 16:55:38;;;;;;;20.88;11.32;;;3.20;70.70;;;;;;4972296;28;20065;-77
2022/12/13 16:58:08;;;;;;;20.00;11.05;;;3.10;70.90;;;;;;4972950;28;20686;-79
2022/12/13 17:00:34;;;;;;;17.08;10.98;;;3.00;71.20;;;;;;4954329;28;20050;-77
2022/12/13 17:03:00;;;;;;;21.38;11.60;;;3.00;71.20;;;;;;4953027;28;20074;-78
2022/12/13 17:05:27;;;;;;;18.27;10.55;;;3.00;71.40;;;;;;4957192;28;20038;-81
2022/12/13 17:07:54;;;;;;;17.02;11.30;;;3.00;71.40;;;;;;4975095;28;20140;-82
2022/12/13 17:10:19;;;;;;;22.08;12.38;;;3.00;71.40;;;;;;4956586;28;20053;-80
2022/12/13 17:12:45;;;;;;;17.95;10.52;;;2.90;71.70;;;;;;4956306;28;20146;-77
2022/12/13 17:15:12;;;;;;;16.58;8.60;;;2.90;71.60;;;;;;4975319;28;20606;-83
2022/12/13 17:17:43;;;;;;;25.48;11.95;;;2.90;71.50;;;;;;4974399;28;20026;-83
2022/12/13 17:20:13;;;;;;;17.13;9.32;;;2.80;71.70;;;;;;4954502;28;20033;-79
2022/12/13 17:22:40;;;;;;;15.55;10.60;;;2.80;71.80;;;;;;4960102;28;20027;-80
2022/12/13 17:25:09;;;;;;;18.42;11.02;;;2.80;72.00;;;;;;4957699;28;20027;-80
2022/12/13 17:27:35;;;;;;;15.48;8.30;;;2.80;72.00;;;;;;4957991;28;20062;-81
2022/12/13 17:30:01;;;;;;;18.17;11.32;;;2.80;71.80;;;;;;4971908;28;20031;-80
2022/12/13 17:32:28;;;;;;;18.15;9.23;;;2.80;71.80;;;;;;4952196;28;20109;-80
2022/12/13 17:34:54;;;;;;;18.60;10.52;;;2.80;72.00;;;;;;4952127;28;20062;-82
2022/12/13 17:37:20;;;;;;;27.38;12.68;;;2.80;72.00;;;;;;4973170;28;20063;-82
2022/12/13 17:39:46;;;;;;;16.33;9.80;;;2.80;72.00;;;;;;4966072;28;20067;-81
2022/12/13 17:42:14;;;;;;;20.08;12.52;;;2.70;72.20;;;;;;4972681;28;20058;-79
2022/12/13 17:44:40;;;;;;;18.08;10.75;;;2.70;72.40;;;;;;4974888;28;20552;-80
2022/12/13 17:47:06;;;;;;;21.80;12.23;;;2.70;72.50;;;;;;4972445;28;20046;-80
2022/12/13 17:49:31;;;;;;;17.42;10.52;;;2.70;72.60;;;;;;4959282;28;20031;-80
2022/12/13 17:51:57;;;;;;;24.00;12.38;;;2.60;72.70;;;;;;4946818;28;20039;-80
2022/12/13 17:54:24;;;;;;;21.88;12.00;;;2.70;73.10;;;;;;4977905;28;20026;-80
2022/12/13 17:56:51;;;;;;;21.55;10.50;;;2.70;72.80;;;;;;4975218;28;20034;-80
2022/12/13 17:59:17;;;;;;;23.25;11.57;;;2.80;72.70;;;;;;4975349;28;20019;-80
2022/12/13 18:01:43;;;;;;;14.77;9.75;;;2.70;72.60;;;;;;4977936;28;20023;-80
2022/12/13 18:04:09;;;;;;;20.95;10.93;;;2.70;72.50;;;;;;4959973;28;20044;-80
2022/12/13 18:06:35;;;;;;;14.90;10.93;;;2.70;72.50;;;;;;4959673;28;20123;-79
2022/12/13 18:09:01;;;;;;;23.67;13.73;;;2.70;72.60;;;;;;4977399;28;20096;-80
2022/12/13 18:11:27;;;;;;;17.33;11.18;;;2.70;72.70;;;;;;4955572;29;20035;-79
2022/12/13 18:13:54;;;;;;;24.52;12.75;;;2.70;72.80;;;;;;4975614;28;20038;-80
2022/12/13 18:16:19;;;;;;;16.77;9.43;;;2.80;72.60;;;;;;4972488;28;20035;-79
2022/12/13 18:18:45;;;;;;;17.02;9.15;;;2.70;72.50;;;;;;4976263;28;20585;-80
2022/12/13 18:21:15;;;;;;;16.73;9.90;;;2.70;72.70;;;;;;4977559;28;20079;-80
2022/12/13 18:23:41;;;;;;;13.35;8.50;;;2.70;72.90;;;;;;4959933;28;20078;-79
2022/12/13 18:26:09;;;;;;;15.25;10.13;;;2.70;72.60;;;;;;4977400;28;20057;-80
2022/12/13 18:28:37;;;;;;;24.90;13.35;;;2.70;72.60;;;;;;4978326;28;20034;-80
2022/12/13 18:31:10;;;;;;;23.92;11.82;;;2.80;72.70;;;;;;4958033;28;20069;-79
2022/12/13 18:33:36;;;;;;;28.63;10.27;;;2.80;72.50;;;;;;4978272;28;20038;-79
2022/12/13 18:36:03;;;;;;;15.85;9.60;;;2.70;72.50;;;;;;4977850;28;20035;-79